createdAt,value
2018-08-03T05:54:10.950Z,963.65
2018-08-03T05:55:10.832Z,963.63
2018-08-03T05:56:10.829Z,963.59
2018-08-03T05:57:10.874Z,963.62
2018-08-03T05:58:10.829Z,963.56
2018-08-03T05:59:10.863Z,963.61
2018-08-03T06:00:10.891Z,963.59
2018-08-03T06:01:11.002Z,963.62
2018-08-03T06:02:12.945Z,963.60
2018-08-03T06:03:11.035Z,963.63
2018-08-03T06:04:10.746Z,963.64
2018-08-03T06:05:10.951Z,963.63
2018-08-03T06:06:10.895Z,963.65
2018-08-03T06:07:10.884Z,963.68
2018-08-03T06:08:10.914Z,963.63
2018-08-03T06:09:10.910Z,963.68
2018-08-03T06:10:10.844Z,963.66
2018-08-03T06:11:10.856Z,963.65
2018-08-03T06:13:46.626Z,963.71
2018-08-03T06:15:56.625Z,963.67
2018-08-03T06:18:12.853Z,963.71
2018-08-03T06:21:07.297Z,963.65
2018-08-03T06:21:44.376Z,963.63
2018-08-03T06:22:44.341Z,963.67
2018-08-03T06:23:44.465Z,963.64
2018-08-03T06:24:44.333Z,963.67
2018-08-03T06:25:44.353Z,963.65
2018-08-03T06:26:46.157Z,963.67
2018-08-03T06:27:44.233Z,963.71
2018-08-03T06:28:44.036Z,963.70
2018-08-03T06:29:44.286Z,963.71
2018-08-03T06:30:44.037Z,963.68
2018-08-03T06:31:51.339Z,963.64
2018-08-03T06:32:44.539Z,963.60
2018-08-03T06:33:44.280Z,963.64
2018-08-03T06:34:43.997Z,963.60
2018-08-03T06:35:44.108Z,963.62
2018-08-03T06:36:44.045Z,963.62
2018-08-03T06:37:44.563Z,963.65
2018-08-03T06:38:43.927Z,963.67
2018-08-03T06:39:43.938Z,963.68
2018-08-03T06:40:43.929Z,963.73
2018-08-03T06:41:43.911Z,963.66
2018-08-03T06:42:43.900Z,963.68
2018-08-03T06:43:44.025Z,963.67
2018-08-03T06:44:43.873Z,963.69
2018-08-03T06:45:43.858Z,963.70
2018-08-03T06:46:43.842Z,963.72
2018-08-03T06:47:43.839Z,963.67
2018-08-03T06:48:43.835Z,963.66
2018-08-03T06:49:43.863Z,963.65
2018-08-03T06:50:43.819Z,963.67
2018-08-03T06:51:43.824Z,963.66
2018-08-03T06:52:43.781Z,963.65
2018-08-03T06:53:43.921Z,963.63
2018-08-03T06:54:44.055Z,963.59
2018-08-03T06:55:43.811Z,963.61
2018-08-03T06:56:43.908Z,963.59
2018-08-03T06:57:43.893Z,963.59
2018-08-03T12:39:06.334Z,961.94
2018-08-03T12:40:06.083Z,961.92
2018-08-03T12:41:06.104Z,962.01
2018-08-03T12:42:06.076Z,961.94
2018-08-03T12:43:06.067Z,961.92
2018-08-03T12:44:06.273Z,961.94
2018-08-03T12:45:06.218Z,961.96
2018-08-03T12:46:06.313Z,961.93
2018-08-03T12:47:06.217Z,961.99
2018-08-03T12:48:06.215Z,961.88
2018-08-03T12:49:06.206Z,961.90
2018-08-03T12:50:06.276Z,961.96
2018-08-03T12:51:06.195Z,961.95
2018-08-03T12:52:06.182Z,961.88
2018-08-03T12:53:06.164Z,961.75
2018-08-03T12:54:06.001Z,961.81
2018-08-03T12:55:06.146Z,961.88
2018-08-03T12:56:06.205Z,961.98
2018-08-03T12:57:06.190Z,961.81
2018-08-03T12:58:06.180Z,961.93
2018-08-03T12:59:05.994Z,961.88
2018-08-03T13:00:06.117Z,961.88
2018-08-03T13:01:06.172Z,961.93
2018-08-03T13:02:06.181Z,961.88
2018-08-03T13:03:05.922Z,961.84
2018-08-03T13:04:06.081Z,961.86
2018-08-03T13:05:06.107Z,961.84
2018-08-03T13:06:06.074Z,961.89
2018-08-03T13:07:06.008Z,961.85
2018-08-03T13:08:06.169Z,961.85
2018-08-03T13:09:05.903Z,961.83
2018-08-03T13:10:05.905Z,961.78
2018-08-03T13:11:06.045Z,961.80
2018-08-03T13:12:06.022Z,961.85
2018-08-03T13:13:06.143Z,961.78
2018-08-03T13:14:06.009Z,961.76
2018-08-03T13:15:05.999Z,961.84
2018-08-03T13:16:05.988Z,961.81
2018-08-03T13:17:06.008Z,961.80
2018-08-03T13:18:06.000Z,961.70
2018-08-03T13:19:06.020Z,961.57
2018-08-03T13:20:05.973Z,961.68
2018-08-03T13:21:05.975Z,961.59
2018-08-03T13:22:05.948Z,961.59
2018-08-03T13:23:05.937Z,961.60
2018-08-03T13:24:06.131Z,961.62
2018-08-03T13:25:05.979Z,961.73
2018-08-03T13:26:05.943Z,961.64
2018-08-03T13:27:06.048Z,961.63
2018-08-03T13:28:05.754Z,961.66
2018-08-03T13:29:05.750Z,961.62
2018-08-03T13:30:06.108Z,961.66
2018-08-03T21:51:36.855Z,961.97
2018-08-03T21:52:36.735Z,962.00
2018-08-03T21:53:36.614Z,962.00
2018-08-03T21:54:36.623Z,962.02
2018-08-03T21:55:36.660Z,962.07
2018-08-03T21:56:36.782Z,962.08
2018-08-03T21:57:36.716Z,962.05
2018-08-03T21:58:36.990Z,962.06
2018-08-03T21:59:36.672Z,962.08
2018-08-03T22:00:36.942Z,962.10
2018-08-03T22:01:37.012Z,962.06
2018-08-03T22:02:36.866Z,962.08
2018-08-03T22:03:37.293Z,962.06
2018-08-03T22:04:36.545Z,962.04
2018-08-03T22:05:36.540Z,962.05
2018-08-03T22:06:36.546Z,962.02
2018-08-03T22:07:36.691Z,962.04
2018-08-03T22:08:36.634Z,961.98
2018-08-03T22:09:36.630Z,962.04
2018-08-03T22:10:36.531Z,962.03
2018-08-03T22:11:36.483Z,962.03
2018-08-03T22:12:36.612Z,961.99
2018-08-03T22:13:36.742Z,962.00
2018-08-03T22:14:36.444Z,962.03
2018-08-03T22:15:36.793Z,962.03
2018-08-03T22:16:36.575Z,961.96
2018-08-03T22:17:37.023Z,962.12
2018-08-03T22:18:36.576Z,962.13
2018-08-03T22:19:36.568Z,962.06
2018-08-03T22:20:37.806Z,961.06
2018-08-03T22:21:36.475Z,960.85
2018-08-03T22:23:28.130Z,960.82
2018-08-03T22:24:28.089Z,960.81
2018-08-03T22:25:27.929Z,960.83
2018-08-03T22:26:27.904Z,960.78
2018-08-03T22:27:27.881Z,960.82
2018-08-03T22:28:28.094Z,960.82
2018-08-03T22:29:28.029Z,960.87
2018-08-03T22:30:28.068Z,960.89
2018-08-03T22:31:28.014Z,960.85
2018-08-03T22:32:27.940Z,960.88
2018-08-03T22:33:27.991Z,960.85
2018-08-03T22:34:28.031Z,960.84
2018-08-03T22:35:27.981Z,960.81
2018-08-03T22:36:27.998Z,960.81
2018-08-03T22:37:27.954Z,960.85
2018-08-03T22:38:27.936Z,960.84
2018-08-03T22:39:27.935Z,960.83
2018-08-03T22:40:27.927Z,960.85
2018-08-03T22:41:28.027Z,960.80
2018-08-03T22:42:27.909Z,960.80
2018-08-03T22:43:27.903Z,960.80
2018-08-03T22:44:27.897Z,960.80
2018-08-03T22:45:27.932Z,960.81
2018-08-03T22:46:27.857Z,960.81
2018-08-03T22:47:27.882Z,960.78
2018-08-03T23:03:14.438Z,960.82
2018-08-03T23:04:14.669Z,960.75
2018-08-03T23:05:14.552Z,960.77
2018-08-03T23:06:14.538Z,960.77
2018-08-03T23:07:14.411Z,960.79
2018-08-03T23:08:14.474Z,960.71
2018-08-03T23:09:14.339Z,960.72
2018-08-03T23:10:14.418Z,960.79
2018-08-03T23:11:14.345Z,960.83
2018-08-03T23:12:14.316Z,960.79
2018-08-03T23:13:14.292Z,960.78
2018-08-03T23:14:14.294Z,960.80
2018-08-03T23:15:14.294Z,960.85
2018-08-03T23:16:14.388Z,960.86
2018-08-03T23:17:14.419Z,960.86
2018-08-03T23:18:14.247Z,960.84
2018-08-03T23:19:14.232Z,960.84
2018-08-03T23:20:14.390Z,960.87
2018-08-03T23:21:14.573Z,960.88
2018-08-03T23:22:14.368Z,960.86
2018-08-03T23:23:14.349Z,960.89
2018-08-03T23:24:14.339Z,960.85
2018-08-03T23:25:14.336Z,960.84
2018-08-03T23:26:14.217Z,960.83
2018-08-03T23:27:14.359Z,960.79
2018-08-03T23:28:14.300Z,960.75
2018-08-03T23:29:14.294Z,960.75
2018-08-03T23:30:14.284Z,960.76
2018-08-03T23:31:14.133Z,960.71
2018-08-03T23:32:14.352Z,960.71
2018-08-03T23:33:14.248Z,960.72
2018-08-03T23:34:14.241Z,960.70
2018-08-03T23:35:14.231Z,960.72
2018-08-03T23:36:14.218Z,960.70
2018-08-03T23:37:14.205Z,960.70
2018-08-03T23:38:14.236Z,960.65
2018-08-03T23:39:14.191Z,960.68
2018-08-03T23:40:14.176Z,960.65
2018-08-03T23:41:14.165Z,960.63
2018-08-03T23:42:14.152Z,960.63
2018-08-03T23:43:14.180Z,960.61
2018-08-03T23:44:14.128Z,960.65
2018-08-03T23:45:14.116Z,960.62
2018-08-03T23:46:14.109Z,960.60
2018-08-03T23:47:14.102Z,960.57
2018-08-03T23:48:14.095Z,960.54
2018-08-03T23:49:14.133Z,960.53
2018-08-03T23:50:13.943Z,960.56
2018-08-03T23:51:14.056Z,960.52
2018-08-03T23:52:14.046Z,960.53
2018-08-03T23:53:14.029Z,960.54
2018-08-03T23:54:14.113Z,960.55
2018-08-03T23:55:14.016Z,960.54
2018-08-03T23:56:14.005Z,960.52
2018-08-03T23:57:13.993Z,960.50
2018-08-03T23:58:13.986Z,960.50
2018-08-03T23:59:13.976Z,960.52
